createdAt,value
2023-11-16T00:00:22.379Z,72.17
2023-11-16T00:01:22.167Z,72.92
2023-11-16T00:02:22.205Z,73.40
2023-11-16T00:03:22.165Z,72.45
2023-11-16T00:04:22.140Z,71.94
2023-11-16T00:05:22.131Z,71.84
2023-11-16T00:06:22.099Z,72.04
2023-11-16T00:07:22.113Z,72.58
2023-11-16T00:08:22.005Z,73.16
2023-11-16T00:09:22.151Z,73.74
2023-11-16T00:10:21.984Z,72.79
2023-11-16T00:11:22.011Z,72.58
2023-11-16T00:12:22.032Z,73.23
2023-11-16T00:13:22.086Z,73.68
2023-11-16T00:14:21.969Z,73.64
2023-11-16T00:15:22.002Z,73.33
2023-11-16T00:16:21.979Z,73.44
2023-11-16T00:17:22.100Z,72.65
2023-11-16T00:18:21.965Z,72.14
2023-11-16T00:19:22.078Z,72.07
2023-11-16T00:20:21.888Z,72.58
2023-11-16T00:21:21.930Z,72.79
2023-11-16T00:22:21.934Z,72.89
2023-11-16T00:23:21.943Z,72.34
2023-11-16T00:24:21.977Z,72.04
2023-11-16T00:25:21.981Z,72.14
2023-11-16T00:26:21.828Z,72.41
2023-11-16T00:27:21.884Z,72.69
2023-11-16T00:28:21.834Z,72.41
2023-11-16T00:29:21.847Z,73.44
2023-11-16T00:30:21.911Z,73.47
2023-11-16T00:31:21.857Z,73.74
2023-11-16T00:32:21.773Z,72.79
2023-11-16T00:33:21.861Z,72.89
2023-11-16T00:34:21.746Z,72.21
2023-11-16T00:35:21.758Z,71.73
2023-11-16T00:36:21.840Z,72.17
2023-11-16T00:37:21.767Z,72.52
2023-11-16T00:38:21.730Z,73.03
2023-11-16T00:39:21.843Z,73.03
2023-11-16T00:40:21.729Z,72.52
2023-11-16T00:41:21.650Z,73.54
2023-11-16T00:42:21.789Z,73.03
2023-11-16T00:43:21.731Z,73.13
2023-11-16T00:44:21.758Z,72.58
2023-11-16T00:45:21.753Z,72.34
2023-11-16T00:46:21.704Z,72.75
2023-11-16T00:47:21.737Z,72.82
2023-11-16T00:48:21.742Z,73.54
2023-11-16T00:49:21.598Z,73.54
2023-11-16T00:50:21.598Z,72.48
2023-11-16T00:51:21.579Z,71.97
2023-11-16T00:52:21.619Z,72.92
2023-11-16T00:53:21.563Z,72.92
2023-11-16T00:54:21.610Z,73.27
2023-11-16T00:55:21.529Z,73.33
2023-11-16T00:56:21.532Z,73.44
2023-11-16T00:57:21.533Z,72.99
2023-11-16T00:58:21.588Z,73.27
2023-11-16T00:59:21.445Z,73.88
2023-11-16T01:00:21.560Z,73.77
2023-11-16T01:01:21.556Z,73.44
2023-11-16T01:02:21.456Z,73.33
2023-11-16T01:03:21.644Z,72.79
2023-11-16T01:04:21.437Z,72.58
2023-11-16T01:05:21.352Z,72.17
2023-11-16T01:06:21.471Z,72.28
2023-11-16T01:07:21.366Z,71.97
2023-11-16T01:08:21.359Z,73.13
2023-11-16T01:09:21.341Z,72.96
2023-11-16T01:10:21.389Z,74.22
2023-11-16T01:11:21.429Z,73.74
2023-11-16T01:12:21.397Z,73.44
2023-11-16T01:13:21.285Z,73.03
2023-11-16T01:14:21.327Z,73.88
2023-11-16T01:15:21.325Z,73.44
2023-11-16T01:16:21.280Z,73.68
2023-11-16T01:17:21.322Z,73.64
2023-11-16T01:18:21.344Z,72.79
2023-11-16T01:19:21.270Z,72.17
2023-11-16T01:20:21.297Z,72.41
2023-11-16T01:21:21.275Z,72.38
2023-11-16T01:22:21.285Z,71.46
2023-11-16T01:23:21.251Z,72.28
2023-11-16T01:24:21.249Z,72.41
2023-11-16T01:25:21.200Z,72.82
2023-11-16T01:26:21.226Z,72.79
2023-11-16T01:27:21.129Z,71.94
2023-11-16T01:28:21.371Z,71.26
2023-11-16T01:29:21.195Z,72.62
2023-11-16T01:30:21.134Z,72.48
2023-11-16T01:31:21.285Z,72.14
2023-11-16T01:32:21.099Z,71.26
2023-11-16T01:33:21.067Z,72.00
2023-11-16T01:34:21.133Z,71.77
2023-11-16T01:35:21.111Z,71.97
2023-11-16T01:36:21.079Z,72.11
2023-11-16T01:37:21.027Z,72.79
2023-11-16T01:38:21.109Z,73.57
2023-11-16T01:39:21.089Z,72.48
2023-11-16T01:40:21.070Z,71.73
2023-11-16T01:41:20.978Z,71.77
2023-11-16T01:42:21.049Z,71.46
2023-11-16T01:43:20.987Z,71.02
2023-11-16T01:44:21.004Z,70.81
2023-11-16T01:45:21.045Z,71.19
2023-11-16T01:46:20.998Z,72.21
2023-11-16T01:47:20.989Z,73.74
2023-11-16T01:48:21.014Z,74.87
2023-11-16T01:49:20.915Z,74.11
2023-11-16T01:50:20.896Z,73.36
2023-11-16T01:51:20.950Z,73.27
2023-11-16T01:52:20.948Z,72.62
2023-11-16T01:53:20.843Z,72.31
2023-11-16T01:54:20.916Z,71.50
2023-11-16T01:55:20.795Z,72.75
2023-11-16T01:56:20.809Z,72.24
2023-11-16T01:57:20.878Z,72.75
2023-11-16T01:58:20.825Z,73.50
2023-11-16T01:59:20.814Z,72.52
2023-11-16T02:00:20.800Z,72.11
2023-11-16T02:01:20.805Z,71.56
2023-11-16T02:02:20.747Z,72.04
2023-11-16T02:03:20.923Z,73.10
2023-11-16T02:04:20.837Z,72.99
2023-11-16T02:05:20.780Z,73.40
2023-11-16T02:06:20.773Z,73.71
2023-11-16T02:07:20.730Z,72.89
2023-11-16T02:08:20.698Z,73.61
2023-11-16T02:09:20.794Z,73.27
2023-11-16T02:10:20.619Z,72.45
2023-11-16T02:11:20.675Z,72.41
2023-11-16T02:12:20.686Z,72.21
2023-11-16T02:13:20.634Z,72.75
2023-11-16T02:14:20.670Z,72.99
2023-11-16T02:15:20.656Z,73.94
2023-11-16T02:16:20.675Z,73.57
2023-11-16T02:17:20.586Z,72.96
2023-11-16T02:18:20.605Z,72.62
2023-11-16T02:19:20.563Z,72.55
2023-11-16T02:20:20.523Z,72.45
2023-11-16T02:21:20.646Z,72.86
2023-11-16T02:22:20.517Z,72.45
2023-11-16T02:23:20.496Z,73.30
2023-11-16T02:24:20.632Z,73.61
2023-11-16T02:25:20.520Z,73.50
2023-11-16T02:26:20.456Z,73.40
2023-11-16T02:27:20.503Z,73.61
2023-11-16T02:28:20.512Z,73.47
2023-11-16T02:29:20.442Z,73.64
2023-11-16T02:30:20.460Z,73.91
2023-11-16T02:31:20.509Z,73.71
2023-11-16T02:32:20.377Z,73.81
2023-11-16T02:33:20.543Z,73.57
2023-11-16T02:34:20.367Z,73.06
2023-11-16T02:35:20.374Z,74.02
2023-11-16T02:36:20.363Z,73.50
2023-11-16T02:37:20.347Z,73.47
2023-11-16T02:38:20.340Z,73.20
2023-11-16T02:39:20.400Z,73.91
2023-11-16T02:40:20.312Z,73.36
2023-11-16T02:41:20.321Z,72.75
2023-11-16T02:42:20.315Z,73.16
2023-11-16T02:43:20.252Z,72.48
2023-11-16T02:44:20.696Z,73.50
2023-11-16T02:45:20.321Z,73.94
2023-11-16T02:46:20.245Z,74.11
2023-11-16T02:47:20.288Z,73.47
2023-11-16T02:48:20.346Z,72.72
2023-11-16T02:49:20.193Z,72.24
2023-11-16T02:50:20.215Z,73.06
2023-11-16T02:51:20.194Z,72.07
2023-11-16T02:52:20.206Z,72.24
2023-11-16T02:53:20.235Z,72.75
2023-11-16T02:54:20.160Z,72.52
2023-11-16T02:55:20.124Z,71.70
2023-11-16T02:56:20.137Z,72.11
2023-11-16T02:57:20.106Z,72.52
2023-11-16T02:58:20.084Z,72.52
2023-11-16T02:59:20.047Z,71.87
2023-11-16T03:00:20.207Z,72.04
2023-11-16T03:01:20.085Z,72.41
2023-11-16T03:02:20.108Z,72.52
2023-11-16T03:03:20.150Z,72.31
2023-11-16T03:04:20.044Z,72.65
2023-11-16T03:05:20.030Z,72.96
2023-11-16T03:06:20.080Z,73.71
2023-11-16T03:07:27.006Z,73.23
2023-11-16T03:08:21.062Z,72.17
2023-11-16T03:09:20.034Z,72.41
2023-11-16T03:10:20.043Z,73.23
2023-11-16T03:11:19.936Z,72.52
2023-11-16T03:12:19.983Z,72.17
2023-11-16T03:13:19.964Z,72.48
2023-11-16T03:14:19.933Z,72.31
2023-11-16T03:15:19.916Z,72.62
2023-11-16T03:16:19.906Z,72.41
2023-11-16T03:17:19.856Z,72.62
2023-11-16T03:18:19.943Z,72.38
2023-11-16T03:19:19.898Z,72.00
2023-11-16T03:20:19.836Z,72.62
2023-11-16T03:21:19.928Z,71.84
2023-11-16T03:22:19.800Z,71.87
2023-11-16T03:23:19.835Z,72.07
2023-11-16T03:24:19.810Z,71.97
2023-11-16T03:25:19.809Z,72.17
2023-11-16T03:26:19.857Z,72.41
2023-11-16T03:27:19.827Z,72.00
2023-11-16T03:28:19.849Z,72.96
2023-11-16T03:29:19.716Z,73.33
2023-11-16T03:30:19.774Z,73.16
2023-11-16T03:31:19.783Z,73.57
2023-11-16T03:32:19.679Z,73.68
2023-11-16T03:33:19.785Z,73.61
2023-11-16T03:34:19.693Z,73.98
2023-11-16T03:35:19.654Z,73.68
2023-11-16T03:36:19.718Z,73.68
2023-11-16T03:37:19.716Z,73.57
2023-11-16T03:38:19.722Z,74.26
2023-11-16T03:39:19.673Z,75.72
2023-11-16T03:40:19.656Z,75.93
2023-11-16T03:41:19.613Z,75.82
2023-11-16T03:42:19.774Z,75.99
2023-11-16T03:43:19.718Z,75.68
2023-11-16T03:44:19.543Z,75.48
2023-11-16T03:45:19.653Z,75.45
2023-11-16T03:46:19.604Z,74.80
2023-11-16T03:47:19.523Z,74.18
2023-11-16T03:48:19.620Z,74.66
2023-11-16T03:49:19.571Z,74.90
2023-11-16T03:50:19.569Z,74.22
2023-11-16T03:51:19.563Z,75.27
2023-11-16T03:52:19.487Z,75.99
2023-11-16T03:53:19.433Z,75.45
2023-11-16T03:54:19.569Z,75.75
2023-11-16T03:55:19.434Z,75.14
2023-11-16T03:56:19.401Z,75.59
2023-11-16T03:57:19.434Z,75.59
2023-11-16T03:58:19.430Z,75.89
2023-11-16T03:59:19.394Z,75.89
2023-11-16T04:00:19.552Z,76.23
2023-11-16T04:01:19.361Z,76.30
2023-11-16T04:02:19.370Z,76.23
2023-11-16T04:03:19.476Z,76.95
2023-11-16T04:04:19.399Z,76.75
2023-11-16T04:05:19.373Z,76.64
2023-11-16T04:06:19.437Z,76.20
2023-11-16T04:07:19.307Z,75.85
2023-11-16T04:08:19.287Z,75.59
2023-11-16T04:09:19.315Z,75.34
2023-11-16T04:10:19.361Z,75.59
2023-11-16T04:11:19.291Z,75.72
2023-11-16T04:12:19.345Z,76.09
2023-11-16T04:13:19.251Z,75.55
2023-11-16T04:14:19.343Z,75.04
2023-11-16T04:15:19.249Z,74.18
2023-11-16T04:16:19.249Z,74.32
2023-11-16T04:17:19.214Z,74.73
2023-11-16T04:18:19.260Z,74.84
2023-11-16T04:19:19.270Z,74.84
2023-11-16T04:20:19.144Z,74.84
2023-11-16T04:21:19.263Z,75.07
2023-11-16T04:22:19.165Z,75.59
2023-11-16T04:23:19.198Z,75.79
2023-11-16T04:24:19.766Z,76.34
2023-11-16T04:25:19.142Z,76.95
2023-11-16T04:26:19.115Z,77.15
2023-11-16T04:27:19.092Z,77.19
2023-11-16T04:28:19.077Z,77.39
2023-11-16T04:29:20.548Z,77.39
2023-11-16T04:30:19.080Z,77.19
2023-11-16T04:31:19.072Z,76.98
2023-11-16T04:32:19.052Z,77.09
2023-11-16T04:33:19.085Z,76.23
2023-11-16T04:34:18.998Z,76.23
2023-11-16T04:35:19.039Z,76.23
2023-11-16T04:36:19.092Z,76.09
2023-11-16T04:37:18.963Z,74.84
2023-11-16T04:38:18.975Z,74.66
2023-11-16T04:39:18.943Z,74.66
2023-11-16T04:40:18.936Z,75.07
2023-11-16T04:41:18.957Z,75.42
2023-11-16T04:42:19.017Z,75.72
2023-11-16T04:43:18.935Z,75.52
2023-11-16T04:44:18.901Z,74.97
2023-11-16T04:45:18.937Z,74.46
2023-11-16T04:46:18.873Z,73.91
2023-11-16T04:47:18.971Z,73.71
2023-11-16T04:48:19.022Z,73.50
2023-11-16T04:49:18.943Z,73.88
2023-11-16T04:50:18.803Z,73.06
2023-11-16T04:51:18.810Z,72.86
2023-11-16T04:52:18.808Z,73.27
2023-11-16T04:53:18.797Z,72.52
2023-11-16T04:54:18.818Z,72.00
2023-11-16T04:55:18.837Z,71.97
2023-11-16T04:56:18.824Z,71.36
2023-11-16T04:57:18.980Z,72.00
2023-11-16T04:58:18.777Z,71.67
2023-11-16T04:59:18.729Z,71.59
2023-11-16T05:00:18.749Z,71.87
2023-11-16T05:01:18.810Z,71.36
2023-11-16T05:02:18.674Z,70.81
2023-11-16T05:03:18.813Z,70.61
2023-11-16T05:04:18.786Z,70.54
2023-11-16T05:05:18.725Z,70.61
2023-11-16T05:06:18.698Z,70.20
2023-11-16T05:07:18.635Z,70.40
2023-11-16T05:08:18.648Z,70.40
2023-11-16T05:09:18.616Z,70.40
2023-11-16T05:10:18.580Z,70.61
2023-11-16T05:11:18.661Z,70.44
2023-11-16T05:12:18.628Z,71.39
2023-11-16T05:13:18.607Z,72.65
2023-11-16T05:14:18.550Z,72.96
2023-11-16T05:15:18.979Z,74.02
2023-11-16T05:16:18.689Z,74.29
2023-11-16T05:17:18.547Z,73.84
2023-11-16T05:18:18.600Z,73.81
2023-11-16T05:19:18.462Z,74.59
2023-11-16T05:20:18.781Z,73.84
2023-11-16T05:21:18.793Z,73.13
2023-11-16T05:22:18.396Z,74.02
2023-11-16T05:23:18.506Z,74.97
2023-11-16T05:24:18.391Z,76.23
2023-11-16T05:25:18.528Z,75.89
2023-11-16T05:26:18.403Z,75.55
2023-11-16T05:27:18.387Z,74.93
2023-11-16T05:28:18.366Z,75.27
2023-11-16T05:29:18.415Z,75.27
2023-11-16T05:30:18.346Z,75.62
2023-11-16T05:31:18.580Z,75.45
2023-11-16T05:32:18.628Z,75.17
2023-11-16T05:33:18.310Z,75.24
2023-11-16T05:34:18.388Z,74.73
2023-11-16T05:35:18.255Z,74.66
2023-11-16T05:36:18.271Z,74.73
2023-11-16T05:37:18.295Z,74.59
2023-11-16T05:38:18.418Z,73.88
2023-11-16T05:39:18.447Z,73.47
2023-11-16T05:40:20.457Z,73.71
2023-11-16T05:41:21.601Z,74.22
2023-11-16T05:42:20.758Z,74.18
2023-11-16T05:43:21.747Z,74.32
2023-11-16T05:44:20.866Z,74.18
2023-11-16T05:45:21.768Z,74.32
2023-11-16T05:46:19.492Z,74.35
2023-11-16T05:47:21.111Z,75.27
2023-11-16T05:48:25.870Z,75.07
2023-11-16T05:49:20.766Z,75.59
2023-11-16T05:50:18.886Z,74.93
2023-11-16T05:51:19.363Z,74.52
2023-11-16T05:52:20.141Z,74.73
2023-11-16T05:53:19.721Z,74.18
2023-11-16T05:54:20.352Z,73.44
2023-11-16T05:55:19.962Z,73.54
2023-11-16T05:56:20.035Z,73.91
2023-11-16T05:57:19.119Z,73.54
2023-11-16T05:58:19.606Z,73.47
2023-11-16T05:59:18.652Z,73.57
2023-11-16T06:00:21.298Z,73.88
2023-11-16T06:01:19.397Z,73.68
2023-11-16T06:02:19.370Z,73.77
2023-11-16T06:03:18.456Z,73.44
2023-11-16T06:04:21.436Z,73.13
2023-11-16T06:06:27.923Z,73.33
2023-11-16T06:07:42.345Z,72.92
2023-11-16T06:08:27.758Z,72.86
2023-11-16T06:09:29.582Z,72.62
2023-11-16T06:10:28.955Z,72.07
2023-11-16T06:11:28.369Z,72.07
2023-11-16T06:12:28.218Z,71.97
2023-11-16T06:13:29.820Z,72.17
2023-11-16T06:14:37.204Z,71.94
2023-11-16T06:15:30.094Z,70.98
2023-11-16T06:16:28.628Z,71.12
2023-11-16T06:17:29.598Z,72.41
2023-11-16T06:18:28.414Z,72.38
2023-11-16T06:19:31.648Z,71.39
2023-11-16T06:20:28.298Z,70.75
2023-11-16T06:21:29.930Z,70.44
2023-11-16T06:22:30.018Z,70.92
2023-11-16T06:23:28.396Z,71.87
2023-11-16T06:24:30.560Z,72.48
2023-11-16T06:25:31.575Z,72.62
2023-11-16T06:26:29.594Z,72.24
2023-11-16T06:27:28.846Z,71.73
2023-11-16T06:28:28.454Z,71.29
2023-11-16T06:29:28.650Z,70.54
2023-11-16T06:30:27.328Z,70.14
2023-11-16T06:31:27.219Z,69.83
2023-11-16T06:32:27.278Z,70.27
2023-11-16T06:33:27.185Z,70.37
2023-11-16T06:34:27.158Z,70.72
2023-11-16T06:35:27.179Z,72.58
2023-11-16T06:36:27.219Z,73.40
2023-11-16T06:37:27.193Z,72.55
2023-11-16T06:38:27.130Z,73.03
2023-11-16T06:39:27.136Z,73.94
2023-11-16T06:40:27.120Z,73.44
2023-11-16T06:41:27.097Z,73.03
2023-11-16T06:42:27.138Z,73.64
2023-11-16T06:43:27.071Z,73.44
2023-11-16T06:44:27.061Z,73.44
2023-11-16T06:45:27.104Z,73.44
2023-11-16T06:46:29.281Z,73.19
2023-11-16T06:47:27.142Z,73.23
2023-11-16T06:48:27.116Z,74.29
2023-11-16T06:49:27.020Z,74.29
2023-11-16T06:50:26.996Z,74.93
2023-11-16T06:51:27.019Z,75.21
2023-11-16T06:52:26.961Z,75.14
2023-11-16T06:53:26.999Z,75.00
2023-11-16T06:54:26.930Z,75.00
2023-11-16T06:55:26.938Z,75.10
2023-11-16T06:56:26.916Z,74.93
2023-11-16T06:57:26.951Z,76.03
2023-11-16T06:58:26.911Z,76.43
2023-11-16T06:59:26.918Z,77.26
2023-11-16T07:00:26.944Z,77.56
2023-11-16T07:01:26.902Z,77.60
2023-11-16T07:02:27.652Z,77.50
2023-11-16T07:03:26.962Z,77.29
2023-11-16T07:04:27.068Z,77.60
2023-11-16T07:05:26.837Z,76.95
2023-11-16T07:06:26.850Z,76.61
2023-11-16T07:07:26.788Z,76.09
2023-11-16T07:08:26.795Z,75.82
2023-11-16T07:09:26.893Z,76.54
2023-11-16T07:10:26.800Z,76.43
2023-11-16T07:11:26.729Z,76.20
2023-11-16T07:12:27.976Z,75.82
2023-11-16T07:13:26.815Z,76.50
2023-11-16T07:14:29.203Z,76.09
2023-11-16T07:15:26.745Z,75.85
2023-11-16T07:16:26.723Z,75.89
2023-11-16T07:17:26.758Z,75.79
2023-11-16T07:18:26.834Z,75.34
2023-11-16T07:19:26.668Z,74.63
2023-11-16T07:20:26.678Z,75.17
2023-11-16T07:21:26.997Z,75.99
2023-11-16T07:22:26.607Z,76.88
2023-11-16T07:23:26.720Z,77.70
2023-11-16T07:24:26.674Z,77.15
2023-11-16T07:25:26.614Z,76.81
2023-11-16T07:26:26.639Z,76.50
2023-11-16T07:27:26.661Z,76.30
2023-11-16T07:28:26.578Z,77.22
2023-11-16T07:29:26.545Z,76.37
2023-11-16T07:30:27.211Z,75.85
2023-11-16T07:31:27.049Z,75.21
2023-11-16T07:32:27.173Z,75.21
2023-11-16T07:33:26.794Z,74.76
2023-11-16T07:34:26.607Z,74.35
2023-11-16T07:35:26.559Z,74.25
2023-11-16T07:36:26.559Z,74.11
2023-11-16T07:37:27.645Z,74.01
2023-11-16T07:38:26.503Z,73.74
2023-11-16T07:39:26.484Z,73.81
2023-11-16T07:40:26.700Z,73.50
2023-11-16T07:41:26.466Z,73.30
2023-11-16T07:42:26.471Z,73.60
2023-11-16T07:43:26.495Z,73.60
2023-11-16T07:44:26.648Z,73.84
2023-11-16T07:45:26.499Z,74.01
2023-11-16T07:46:26.503Z,73.50
2023-11-16T07:47:26.446Z,73.64
2023-11-16T07:48:26.479Z,74.35
2023-11-16T07:49:26.594Z,74.69
2023-11-16T07:50:26.391Z,75.00
2023-11-16T07:51:26.468Z,74.97
2023-11-16T07:52:26.450Z,74.32
2023-11-16T07:53:26.356Z,74.11
2023-11-16T07:54:26.419Z,73.60
2023-11-16T07:55:26.451Z,74.46
2023-11-16T07:56:26.318Z,74.35
2023-11-16T07:57:26.301Z,74.01
2023-11-16T07:58:26.278Z,73.71
2023-11-16T07:59:26.281Z,73.27
2023-11-16T08:00:26.296Z,74.11
2023-11-16T08:01:26.260Z,73.91
2023-11-16T08:02:26.244Z,73.84
2023-11-16T08:03:26.376Z,74.25
2023-11-16T08:04:26.230Z,74.22
2023-11-16T08:05:26.191Z,74.11
2023-11-16T08:06:28.327Z,73.60
2023-11-16T08:07:26.119Z,73.91
2023-11-16T08:08:26.113Z,73.67
2023-11-16T08:09:26.123Z,73.71
2023-11-16T08:10:26.098Z,73.50
2023-11-16T08:11:26.092Z,73.71
2023-11-16T08:12:26.143Z,75.10
2023-11-16T08:13:26.086Z,75.04
2023-11-16T08:14:26.095Z,76.57
2023-11-16T08:15:26.055Z,76.23
2023-11-16T08:16:26.637Z,76.12
2023-11-16T08:17:26.063Z,75.27
2023-11-16T08:18:26.557Z,74.52
2023-11-16T08:19:26.003Z,73.77
2023-11-16T08:20:25.987Z,74.22
2023-11-16T08:21:25.989Z,74.49
2023-11-16T08:22:25.952Z,73.71
2023-11-16T08:23:30.222Z,74.42
2023-11-16T08:24:27.008Z,74.22
2023-11-16T08:25:25.929Z,74.11
2023-11-16T08:26:25.905Z,75.51
2023-11-16T08:27:25.891Z,76.03
2023-11-16T08:28:25.865Z,76.47
2023-11-16T08:29:25.867Z,77.73
2023-11-16T08:30:25.866Z,77.94
2023-11-16T08:31:25.882Z,77.59
2023-11-16T08:32:25.912Z,77.04
2023-11-16T08:33:25.830Z,77.19
2023-11-16T08:34:25.806Z,78.20
2023-11-16T08:35:25.858Z,77.25
2023-11-16T08:36:25.826Z,77.04
2023-11-16T08:37:25.818Z,76.50
2023-11-16T08:38:25.753Z,77.25
2023-11-16T08:39:25.804Z,77.01
2023-11-16T08:40:25.724Z,76.53
2023-11-16T08:41:25.750Z,77.25
2023-11-16T08:42:25.704Z,77.01
2023-11-16T08:43:25.747Z,76.90
2023-11-16T08:44:25.729Z,76.60
2023-11-16T08:45:25.698Z,76.09
2023-11-16T08:46:26.411Z,76.29
2023-11-16T08:47:25.650Z,76.81
2023-11-16T08:48:25.714Z,76.56
2023-11-16T08:49:25.634Z,75.92
2023-11-16T08:50:25.618Z,75.10
2023-11-16T08:51:25.892Z,74.66
2023-11-16T08:52:25.606Z,74.90
2023-11-16T08:53:25.606Z,74.45
2023-11-16T08:54:25.789Z,73.67
2023-11-16T08:55:25.601Z,72.99
2023-11-16T08:56:31.283Z,73.19
2023-11-16T08:57:26.600Z,73.50
2023-11-16T08:58:25.538Z,73.50
2023-11-16T08:59:25.546Z,73.50
2023-11-16T09:00:25.565Z,73.60
2023-11-16T09:01:25.529Z,74.11
2023-11-16T09:02:25.498Z,73.77
2023-11-16T09:03:25.826Z,73.23
2023-11-16T09:04:26.207Z,72.75
2023-11-16T09:05:25.501Z,73.13
2023-11-16T09:06:25.487Z,73.02
2023-11-16T09:07:25.428Z,73.23
2023-11-16T09:08:25.456Z,73.02
2023-11-16T09:09:25.471Z,73.26
2023-11-16T09:10:25.492Z,74.73
2023-11-16T09:11:25.398Z,73.88
2023-11-16T09:12:25.426Z,73.13
2023-11-16T09:13:25.373Z,72.52
2023-11-16T09:14:27.850Z,73.47
2023-11-16T09:15:25.373Z,72.82
2023-11-16T09:16:25.324Z,72.78
2023-11-16T09:17:25.383Z,71.84
2023-11-16T09:18:25.399Z,71.84
2023-11-16T09:19:25.348Z,71.50
2023-11-16T09:20:25.274Z,70.65
2023-11-16T09:21:25.293Z,70.38
2023-11-16T09:22:25.356Z,71.43
2023-11-16T09:23:25.286Z,71.53
2023-11-16T09:24:25.275Z,71.73
2023-11-16T09:25:25.430Z,72.48
2023-11-16T09:26:25.722Z,72.78
2023-11-16T09:27:25.303Z,72.78
2023-11-16T09:28:25.292Z,72.55
2023-11-16T09:29:25.233Z,71.50
2023-11-16T09:30:29.583Z,71.26
2023-11-16T09:31:25.547Z,70.45
2023-11-16T09:32:25.602Z,70.52
2023-11-16T09:33:27.055Z,70.31
2023-11-16T09:34:32.859Z,70.42
2023-11-16T09:35:36.886Z,70.35
2023-11-16T09:36:27.566Z,70.55
2023-11-16T09:37:32.410Z,71.06
2023-11-16T09:38:30.682Z,70.86
2023-11-16T09:39:27.637Z,71.06
2023-11-16T09:40:29.169Z,71.36
2023-11-16T09:45:06.111Z,72.17
2023-11-16T09:46:00.505Z,71.73
2023-11-16T09:47:00.729Z,70.92
2023-11-16T09:48:00.335Z,71.23
2023-11-16T09:49:03.652Z,71.12
2023-11-16T09:50:04.691Z,70.86
2023-11-16T09:51:02.432Z,71.36
2023-11-16T09:52:09.109Z,72.11
2023-11-16T09:53:01.789Z,74.25
2023-11-16T09:54:02.129Z,74.82
2023-11-16T09:55:02.371Z,74.08
2023-11-16T09:56:39.403Z,73.33
2023-11-16T09:57:01.572Z,72.41
2023-11-16T09:57:59.919Z,72.11
2023-11-16T09:59:00.368Z,72.08
2023-11-16T10:00:00.295Z,72.41
2023-11-16T10:01:00.544Z,71.97
2023-11-16T10:02:00.414Z,71.60
2023-11-16T10:03:00.066Z,73.02
2023-11-16T10:04:00.668Z,72.69
2023-11-16T10:05:00.391Z,72.48
2023-11-16T10:06:00.215Z,72.21
2023-11-16T10:07:00.411Z,73.26
2023-11-16T10:07:59.954Z,73.77
2023-11-16T10:08:59.808Z,73.36
2023-11-16T10:10:00.647Z,73.63
2023-11-16T10:11:01.144Z,72.72
2023-11-16T10:11:59.842Z,73.23
2023-11-16T10:13:00.120Z,72.38
2023-11-16T10:14:00.808Z,71.77
2023-11-16T10:14:59.706Z,72.41
2023-11-16T10:16:00.179Z,72.86
2023-11-16T10:17:00.035Z,73.16
2023-11-16T10:17:59.915Z,73.87
2023-11-16T10:19:00.364Z,73.57
2023-11-16T10:19:59.600Z,73.87
2023-11-16T10:20:59.531Z,74.11
2023-11-16T10:21:59.704Z,74.11
2023-11-16T10:22:59.541Z,74.32
2023-11-16T10:23:59.543Z,74.93
2023-11-16T10:24:59.599Z,75.33
2023-11-16T10:25:59.521Z,75.02
2023-11-16T10:26:59.563Z,75.37
2023-11-16T10:27:59.627Z,75.57
2023-11-16T10:28:59.438Z,75.47
2023-11-16T10:29:59.518Z,75.67
2023-11-16T10:30:59.458Z,75.88
2023-11-16T10:31:59.556Z,75.37
2023-11-16T10:32:59.474Z,75.02
2023-11-16T10:33:59.707Z,74.58
2023-11-16T10:34:59.420Z,74.24
2023-11-16T10:35:59.390Z,73.84
2023-11-16T10:36:59.407Z,73.97
2023-11-16T10:37:59.397Z,74.93
2023-11-16T10:38:59.448Z,75.57
2023-11-16T10:39:59.393Z,75.27
2023-11-16T10:40:59.341Z,74.89
2023-11-16T10:41:59.434Z,74.69
2023-11-16T10:42:59.385Z,74.28
2023-11-16T10:43:59.261Z,75.23
2023-11-16T10:44:59.374Z,75.09
2023-11-16T10:45:59.319Z,74.04
2023-11-16T10:46:59.365Z,73.39
2023-11-16T10:47:59.239Z,73.63
2023-11-16T10:48:59.275Z,73.39
2023-11-16T10:49:59.211Z,72.25
2023-11-16T10:50:59.157Z,71.70
2023-11-16T10:51:59.206Z,71.30
2023-11-16T10:52:59.173Z,71.30
2023-11-16T10:53:59.130Z,70.79
2023-11-16T10:54:59.195Z,71.16
2023-11-16T10:55:59.120Z,72.17
2023-11-16T10:56:59.083Z,72.17
2023-11-16T10:57:59.129Z,72.17
2023-11-16T10:58:59.098Z,72.38
2023-11-16T10:59:59.099Z,73.13
2023-11-16T11:00:59.176Z,73.09
2023-11-16T11:01:59.058Z,72.38
2023-11-16T11:02:59.057Z,73.23
2023-11-16T11:03:59.302Z,73.57
2023-11-16T11:04:59.111Z,73.70
2023-11-16T11:05:59.077Z,72.78
2023-11-16T11:06:59.118Z,72.58
2023-11-16T11:07:58.992Z,72.55
2023-11-16T11:08:59.111Z,72.55
2023-11-16T11:09:59.008Z,71.64
2023-11-16T11:10:59.053Z,72.45
2023-11-16T11:11:59.078Z,72.55
2023-11-16T11:12:59.028Z,72.25
2023-11-16T11:13:59.670Z,71.12
2023-11-16T11:14:58.926Z,72.14
2023-11-16T11:15:58.982Z,71.53
2023-11-16T11:16:58.938Z,71.20
2023-11-16T11:17:58.983Z,71.30
2023-11-16T11:18:59.664Z,70.89
2023-11-16T11:19:58.953Z,70.76
2023-11-16T11:20:58.871Z,70.92
2023-11-16T11:21:58.872Z,71.67
2023-11-16T11:22:58.840Z,72.34
2023-11-16T11:23:58.866Z,71.60
2023-11-16T11:25:02.164Z,71.67
2023-11-16T11:25:59.792Z,71.87
2023-11-16T11:26:58.884Z,71.97
2023-11-16T11:27:58.820Z,72.08
2023-11-16T11:28:58.784Z,71.64
2023-11-16T11:29:58.731Z,71.53
2023-11-16T11:32:26.082Z,71.09
2023-11-16T11:33:23.501Z,69.74
2023-11-16T11:34:24.798Z,69.23
2023-11-16T11:35:23.912Z,70.52
2023-11-16T11:36:23.940Z,71.23
2023-11-16T11:37:23.147Z,71.23
2023-11-16T11:38:25.325Z,70.55
2023-11-16T11:39:22.575Z,70.15
2023-11-16T11:40:23.464Z,69.95
2023-11-16T11:41:25.028Z,70.18
2023-11-16T11:42:26.364Z,70.72
2023-11-16T11:43:24.259Z,71.23
2023-11-16T11:44:24.597Z,71.40
2023-11-16T11:45:22.917Z,71.53
2023-11-16T11:46:24.296Z,71.60
2023-11-16T11:47:25.729Z,71.57
2023-11-16T11:48:25.201Z,70.86
2023-11-16T11:49:28.958Z,70.99
2023-11-16T11:50:22.960Z,71.53
2023-11-16T11:51:26.504Z,71.94
2023-11-16T11:52:23.450Z,72.25
2023-11-16T11:53:27.209Z,72.58
2023-11-16T11:54:23.645Z,73.57
2023-11-16T11:55:24.988Z,73.02
2023-11-16T11:57:41.352Z,72.85
2023-11-16T11:58:38.471Z,72.69
2023-11-16T11:59:37.203Z,73.63
2023-11-16T12:00:37.301Z,73.70
2023-11-16T12:01:40.002Z,73.39
2023-11-16T12:02:36.066Z,72.69
2023-11-16T12:03:35.053Z,73.30
2023-11-16T12:04:33.415Z,73.09
2023-11-16T12:05:36.893Z,73.60
2023-11-16T12:06:33.804Z,73.16
2023-11-16T12:07:36.434Z,72.21
2023-11-16T12:09:59.103Z,73.94
2023-11-16T12:10:57.969Z,73.74
2023-11-16T12:12:01.508Z,74.15
2023-11-16T12:13:00.048Z,73.43
2023-11-16T12:13:57.442Z,73.70
2023-11-16T12:14:56.154Z,73.09
2023-11-16T12:15:55.519Z,73.19
2023-11-16T12:16:58.547Z,72.52
2023-11-16T12:18:00.777Z,72.52
2023-11-16T12:18:58.343Z,72.34
2023-11-16T12:19:53.746Z,72.82
2023-11-16T12:20:53.536Z,73.87
2023-11-16T12:21:53.592Z,75.20
2023-11-16T12:22:53.514Z,75.20
2023-11-16T12:23:53.490Z,74.89
2023-11-16T12:24:53.872Z,75.40
2023-11-16T12:25:53.513Z,75.43
2023-11-16T12:26:53.653Z,74.69
2023-11-16T12:27:53.539Z,74.24
2023-11-16T12:28:53.479Z,73.60
2023-11-16T12:29:53.474Z,73.30
2023-11-16T12:30:54.438Z,73.30
2023-11-16T12:31:53.410Z,73.30
2023-11-16T12:32:53.513Z,73.19
2023-11-16T12:33:53.442Z,72.96
2023-11-16T12:34:53.408Z,72.58
2023-11-16T12:35:53.376Z,72.48
2023-11-16T12:36:53.436Z,73.67
2023-11-16T12:37:53.349Z,75.13
2023-11-16T12:38:53.305Z,75.60
2023-11-16T12:39:53.400Z,74.45
2023-11-16T12:40:53.381Z,73.60
2023-11-16T12:41:53.292Z,72.65
2023-11-16T12:42:53.380Z,72.25
2023-11-16T12:43:53.266Z,71.84
2023-11-16T12:44:53.247Z,72.48
2023-11-16T12:45:53.418Z,72.69
2023-11-16T12:46:53.431Z,72.38
2023-11-16T12:47:53.322Z,72.08
2023-11-16T12:48:53.215Z,72.69
2023-11-16T12:49:53.742Z,72.34
2023-11-16T12:50:53.200Z,71.60
2023-11-16T12:51:53.344Z,71.60
2023-11-16T12:52:53.185Z,71.53
2023-11-16T12:53:53.181Z,71.53
2023-11-16T12:54:53.847Z,71.33
2023-11-16T12:55:53.187Z,71.80
2023-11-16T12:56:53.097Z,71.64
2023-11-16T12:57:53.166Z,71.73
2023-11-16T12:58:53.058Z,71.60
2023-11-16T12:59:53.099Z,71.20
2023-11-16T13:00:53.167Z,71.64